sensor_id;sensor_type;location;lat;lon;timestamp;P1;durP1;ratioP1;P2;durP2;ratioP2
25936;SDS011;13733;51.178;4.450;2024-03-06T00:02:09;17.98;;;10.98;;
25936;SDS011;13733;51.178;4.450;2024-03-06T00:04:34;17.30;;;10.55;;
25936;SDS011;13733;51.178;4.450;2024-03-06T00:07:00;12.45;;;9.57;;
25936;SDS011;13733;51.178;4.450;2024-03-06T00:09:26;13.57;;;9.80;;
25936;SDS011;13733;51.178;4.450;2024-03-06T00:11:53;19.10;;;9.90;;
25936;SDS011;13733;51.178;4.450;2024-03-06T00:14:19;12.25;;;9.85;;
25936;SDS011;13733;51.178;4.450;2024-03-06T00:16:47;14.25;;;9.32;;
25936;SDS011;13733;51.178;4.450;2024-03-06T00:19:17;14.57;;;9.83;;
25936;SDS011;13733;51.178;4.450;2024-03-06T00:21:43;16.48;;;9.77;;
25936;SDS011;13733;51.178;4.450;2024-03-06T00:24:11;13.05;;;9.38;;
25936;SDS011;13733;51.178;4.450;2024-03-06T00:26:39;14.13;;;9.90;;
25936;SDS011;13733;51.178;4.450;2024-03-06T00:29:09;13.35;;;10.02;;
25936;SDS011;13733;51.178;4.450;2024-03-06T00:31:36;16.25;;;10.35;;
25936;SDS011;13733;51.178;4.450;2024-03-06T00:34:03;13.40;;;9.50;;
25936;SDS011;13733;51.178;4.450;2024-03-06T00:36:29;13.55;;;9.75;;
25936;SDS011;13733;51.178;4.450;2024-03-06T00:38:55;14.75;;;9.73;;
25936;SDS011;13733;51.178;4.450;2024-03-06T00:41:21;14.23;;;10.15;;
25936;SDS011;13733;51.178;4.450;2024-03-06T00:43:48;12.95;;;9.93;;
25936;SDS011;13733;51.178;4.450;2024-03-06T00:46:14;14.00;;;9.27;;
25936;SDS011;13733;51.178;4.450;2024-03-06T00:48:40;14.15;;;9.48;;
25936;SDS011;13733;51.178;4.450;2024-03-06T00:51:05;13.80;;;9.80;;
25936;SDS011;13733;51.178;4.450;2024-03-06T00:53:32;14.35;;;9.60;;
25936;SDS011;13733;51.178;4.450;2024-03-06T00:56:00;12.30;;;9.82;;
25936;SDS011;13733;51.178;4.450;2024-03-06T00:58:26;15.32;;;10.02;;
25936;SDS011;13733;51.178;4.450;2024-03-06T01:00:52;13.07;;;9.50;;
25936;SDS011;13733;51.178;4.450;2024-03-06T01:03:18;12.05;;;9.43;;
25936;SDS011;13733;51.178;4.450;2024-03-06T01:05:43;12.38;;;9.77;;
25936;SDS011;13733;51.178;4.450;2024-03-06T01:08:10;10.43;;;8.43;;
25936;SDS011;13733;51.178;4.450;2024-03-06T01:10:36;13.15;;;9.10;;
25936;SDS011;13733;51.178;4.450;2024-03-06T01:13:02;12.63;;;9.10;;
25936;SDS011;13733;51.178;4.450;2024-03-06T01:15:28;11.43;;;8.98;;
25936;SDS011;13733;51.178;4.450;2024-03-06T01:17:53;14.80;;;10.35;;
25936;SDS011;13733;51.178;4.450;2024-03-06T01:20:19;12.70;;;9.45;;
25936;SDS011;13733;51.178;4.450;2024-03-06T01:22:45;11.98;;;9.43;;
25936;SDS011;13733;51.178;4.450;2024-03-06T01:25:11;11.70;;;9.48;;
25936;SDS011;13733;51.178;4.450;2024-03-06T01:27:37;12.70;;;9.00;;
25936;SDS011;13733;51.178;4.450;2024-03-06T01:30:03;14.88;;;10.55;;
25936;SDS011;13733;51.178;4.450;2024-03-06T01:32:29;12.93;;;8.60;;
25936;SDS011;13733;51.178;4.450;2024-03-06T01:34:56;13.38;;;9.35;;
25936;SDS011;13733;51.178;4.450;2024-03-06T01:37:22;9.98;;;8.38;;
25936;SDS011;13733;51.178;4.450;2024-03-06T01:39:48;12.68;;;8.57;;
25936;SDS011;13733;51.178;4.450;2024-03-06T01:42:16;11.57;;;8.93;;
25936;SDS011;13733;51.178;4.450;2024-03-06T01:44:42;12.98;;;9.52;;
25936;SDS011;13733;51.178;4.450;2024-03-06T01:47:08;14.20;;;9.07;;
25936;SDS011;13733;51.178;4.450;2024-03-06T01:49:36;12.00;;;9.10;;
25936;SDS011;13733;51.178;4.450;2024-03-06T01:52:02;13.32;;;9.13;;
25936;SDS011;13733;51.178;4.450;2024-03-06T01:54:29;12.43;;;9.07;;
25936;SDS011;13733;51.178;4.450;2024-03-06T01:56:56;22.40;;;8.95;;
25936;SDS011;13733;51.178;4.450;2024-03-06T01:59:25;11.07;;;8.77;;
25936;SDS011;13733;51.178;4.450;2024-03-06T02:01:54;11.40;;;8.15;;
25936;SDS011;13733;51.178;4.450;2024-03-06T02:04:20;12.30;;;8.95;;
25936;SDS011;13733;51.178;4.450;2024-03-06T02:06:47;11.63;;;8.55;;
25936;SDS011;13733;51.178;4.450;2024-03-06T02:09:13;11.95;;;8.63;;
25936;SDS011;13733;51.178;4.450;2024-03-06T02:11:39;11.50;;;8.43;;
25936;SDS011;13733;51.178;4.450;2024-03-06T02:14:05;9.68;;;8.57;;
25936;SDS011;13733;51.178;4.450;2024-03-06T02:16:35;11.75;;;8.20;;
25936;SDS011;13733;51.178;4.450;2024-03-06T02:19:01;10.68;;;8.65;;
25936;SDS011;13733;51.178;4.450;2024-03-06T02:21:28;10.18;;;8.43;;
25936;SDS011;13733;51.178;4.450;2024-03-06T02:23:54;11.38;;;8.38;;
25936;SDS011;13733;51.178;4.450;2024-03-06T02:26:20;12.30;;;8.35;;
25936;SDS011;13733;51.178;4.450;2024-03-06T02:28:53;10.73;;;8.13;;
25936;SDS011;13733;51.178;4.450;2024-03-06T02:31:22;14.63;;;9.38;;
25936;SDS011;13733;51.178;4.450;2024-03-06T02:33:48;12.55;;;8.50;;
25936;SDS011;13733;51.178;4.450;2024-03-06T02:36:17;11.00;;;8.38;;
25936;SDS011;13733;51.178;4.450;2024-03-06T02:38:44;11.57;;;8.90;;
25936;SDS011;13733;51.178;4.450;2024-03-06T02:41:10;11.93;;;9.02;;
25936;SDS011;13733;51.178;4.450;2024-03-06T02:43:39;13.07;;;9.50;;
25936;SDS011;13733;51.178;4.450;2024-03-06T02:46:05;13.13;;;9.40;;
25936;SDS011;13733;51.178;4.450;2024-03-06T02:48:31;12.02;;;9.45;;
25936;SDS011;13733;51.178;4.450;2024-03-06T02:50:56;11.93;;;8.80;;
25936;SDS011;13733;51.178;4.450;2024-03-06T02:53:22;10.25;;;8.50;;
25936;SDS011;13733;51.178;4.450;2024-03-06T02:55:48;11.80;;;9.07;;
25936;SDS011;13733;51.178;4.450;2024-03-06T02:58:14;13.45;;;9.32;;
25936;SDS011;13733;51.178;4.450;2024-03-06T03:00:42;11.68;;;8.90;;
25936;SDS011;13733;51.178;4.450;2024-03-06T03:03:08;11.25;;;9.02;;
25936;SDS011;13733;51.178;4.450;2024-03-06T03:05:37;12.43;;;8.52;;
25936;SDS011;13733;51.178;4.450;2024-03-06T03:08:04;15.07;;;9.52;;
25936;SDS011;13733;51.178;4.450;2024-03-06T03:10:31;11.98;;;9.13;;
25936;SDS011;13733;51.178;4.450;2024-03-06T03:12:56;10.85;;;9.00;;
25936;SDS011;13733;51.178;4.450;2024-03-06T03:15:22;12.25;;;9.38;;
25936;SDS011;13733;51.178;4.450;2024-03-06T03:17:48;11.27;;;9.95;;
25936;SDS011;13733;51.178;4.450;2024-03-06T03:20:14;11.68;;;9.30;;
25936;SDS011;13733;51.178;4.450;2024-03-06T03:22:42;11.77;;;9.80;;
25936;SDS011;13733;51.178;4.450;2024-03-06T03:25:11;11.63;;;8.90;;
25936;SDS011;13733;51.178;4.450;2024-03-06T03:27:41;12.73;;;9.23;;
25936;SDS011;13733;51.178;4.450;2024-03-06T03:30:11;11.93;;;8.88;;
25936;SDS011;13733;51.178;4.450;2024-03-06T03:32:38;12.75;;;9.23;;
25936;SDS011;13733;51.178;4.450;2024-03-06T03:35:07;12.68;;;9.38;;
25936;SDS011;13733;51.178;4.450;2024-03-06T03:37:33;13.77;;;10.13;;
25936;SDS011;13733;51.178;4.450;2024-03-06T03:39:59;11.45;;;9.48;;
25936;SDS011;13733;51.178;4.450;2024-03-06T03:42:25;11.60;;;9.48;;
25936;SDS011;13733;51.178;4.450;2024-03-06T03:44:51;11.93;;;9.32;;
25936;SDS011;13733;51.178;4.450;2024-03-06T03:47:17;12.75;;;10.20;;
25936;SDS011;13733;51.178;4.450;2024-03-06T03:49:43;12.75;;;10.18;;
25936;SDS011;13733;51.178;4.450;2024-03-06T03:52:09;14.05;;;9.68;;
25936;SDS011;13733;51.178;4.450;2024-03-06T03:54:36;12.30;;;9.60;;
25936;SDS011;13733;51.178;4.450;2024-03-06T03:57:03;12.45;;;9.70;;
25936;SDS011;13733;51.178;4.450;2024-03-06T03:59:29;12.20;;;10.38;;
25936;SDS011;13733;51.178;4.450;2024-03-06T04:01:55;14.10;;;10.85;;
25936;SDS011;13733;51.178;4.450;2024-03-06T04:04:22;13.65;;;10.40;;
25936;SDS011;13733;51.178;4.450;2024-03-06T04:06:48;15.73;;;10.48;;
25936;SDS011;13733;51.178;4.450;2024-03-06T04:09:14;14.07;;;10.95;;
25936;SDS011;13733;51.178;4.450;2024-03-06T04:11:40;16.63;;;11.85;;
25936;SDS011;13733;51.178;4.450;2024-03-06T04:14:06;16.08;;;11.32;;
25936;SDS011;13733;51.178;4.450;2024-03-06T04:16:35;15.52;;;11.68;;
25936;SDS011;13733;51.178;4.450;2024-03-06T04:19:01;16.52;;;11.35;;
25936;SDS011;13733;51.178;4.450;2024-03-06T04:21:27;15.48;;;12.07;;
25936;SDS011;13733;51.178;4.450;2024-03-06T04:23:53;15.80;;;11.20;;
25936;SDS011;13733;51.178;4.450;2024-03-06T04:26:18;16.35;;;12.63;;
25936;SDS011;13733;51.178;4.450;2024-03-06T04:28:45;18.67;;;13.07;;
25936;SDS011;13733;51.178;4.450;2024-03-06T04:31:11;15.52;;;11.85;;
25936;SDS011;13733;51.178;4.450;2024-03-06T04:33:37;16.85;;;13.00;;
25936;SDS011;13733;51.178;4.450;2024-03-06T04:36:03;17.23;;;14.02;;
25936;SDS011;13733;51.178;4.450;2024-03-06T04:38:33;15.85;;;12.32;;
25936;SDS011;13733;51.178;4.450;2024-03-06T04:40:59;15.18;;;12.82;;
25936;SDS011;13733;51.178;4.450;2024-03-06T04:43:31;18.17;;;12.40;;
25936;SDS011;13733;51.178;4.450;2024-03-06T04:45:57;16.33;;;12.43;;
25936;SDS011;13733;51.178;4.450;2024-03-06T04:48:23;19.95;;;12.65;;
25936;SDS011;13733;51.178;4.450;2024-03-06T04:50:49;16.10;;;12.20;;
25936;SDS011;13733;51.178;4.450;2024-03-06T04:53:14;17.30;;;12.98;;
25936;SDS011;13733;51.178;4.450;2024-03-06T04:55:40;17.73;;;12.50;;
25936;SDS011;13733;51.178;4.450;2024-03-06T04:58:06;17.73;;;12.43;;
25936;SDS011;13733;51.178;4.450;2024-03-06T05:00:32;17.10;;;12.88;;
25936;SDS011;13733;51.178;4.450;2024-03-06T05:02:58;15.82;;;12.77;;
25936;SDS011;13733;51.178;4.450;2024-03-06T05:05:24;17.23;;;13.02;;
25936;SDS011;13733;51.178;4.450;2024-03-06T05:07:50;16.10;;;12.52;;
25936;SDS011;13733;51.178;4.450;2024-03-06T05:10:17;17.50;;;12.80;;
25936;SDS011;13733;51.178;4.450;2024-03-06T05:12:42;18.48;;;13.90;;
25936;SDS011;13733;51.178;4.450;2024-03-06T05:15:09;20.30;;;13.82;;
25936;SDS011;13733;51.178;4.450;2024-03-06T05:17:35;21.15;;;13.57;;
25936;SDS011;13733;51.178;4.450;2024-03-06T05:20:02;18.65;;;13.52;;
25936;SDS011;13733;51.178;4.450;2024-03-06T05:22:31;21.20;;;13.60;;
25936;SDS011;13733;51.178;4.450;2024-03-06T05:24:57;15.95;;;12.52;;
25936;SDS011;13733;51.178;4.450;2024-03-06T05:27:23;18.08;;;12.82;;
25936;SDS011;13733;51.178;4.450;2024-03-06T05:29:50;16.25;;;12.73;;
25936;SDS011;13733;51.178;4.450;2024-03-06T05:32:16;19.10;;;13.90;;
25936;SDS011;13733;51.178;4.450;2024-03-06T05:34:42;16.98;;;13.45;;
25936;SDS011;13733;51.178;4.450;2024-03-06T05:37:10;21.33;;;13.70;;
25936;SDS011;13733;51.178;4.450;2024-03-06T05:39:36;19.75;;;13.90;;
25936;SDS011;13733;51.178;4.450;2024-03-06T05:42:05;20.88;;;13.05;;
25936;SDS011;13733;51.178;4.450;2024-03-06T05:44:32;19.15;;;14.40;;
25936;SDS011;13733;51.178;4.450;2024-03-06T05:47:02;24.60;;;15.02;;
25936;SDS011;13733;51.178;4.450;2024-03-06T05:49:28;21.70;;;14.95;;
25936;SDS011;13733;51.178;4.450;2024-03-06T05:51:55;20.42;;;14.00;;
25936;SDS011;13733;51.178;4.450;2024-03-06T05:54:21;22.88;;;13.70;;
25936;SDS011;13733;51.178;4.450;2024-03-06T05:56:48;17.40;;;13.90;;
25936;SDS011;13733;51.178;4.450;2024-03-06T05:59:15;19.45;;;15.35;;
25936;SDS011;13733;51.178;4.450;2024-03-06T06:01:41;21.63;;;14.57;;
25936;SDS011;13733;51.178;4.450;2024-03-06T06:04:08;18.23;;;14.07;;
25936;SDS011;13733;51.178;4.450;2024-03-06T06:06:34;18.35;;;14.63;;
25936;SDS011;13733;51.178;4.450;2024-03-06T06:09:00;19.48;;;14.30;;
25936;SDS011;13733;51.178;4.450;2024-03-06T06:11:27;20.83;;;15.35;;
25936;SDS011;13733;51.178;4.450;2024-03-06T06:13:53;25.95;;;16.20;;
25936;SDS011;13733;51.178;4.450;2024-03-06T06:16:19;23.00;;;15.65;;
25936;SDS011;13733;51.178;4.450;2024-03-06T06:18:44;22.85;;;16.27;;
25936;SDS011;13733;51.178;4.450;2024-03-06T06:21:10;23.42;;;16.95;;
25936;SDS011;13733;51.178;4.450;2024-03-06T06:23:36;22.45;;;16.67;;
25936;SDS011;13733;51.178;4.450;2024-03-06T06:26:02;20.88;;;16.40;;
25936;SDS011;13733;51.178;4.450;2024-03-06T06:28:28;25.08;;;17.45;;
25936;SDS011;13733;51.178;4.450;2024-03-06T06:30:53;25.55;;;18.00;;
25936;SDS011;13733;51.178;4.450;2024-03-06T06:33:21;21.25;;;16.40;;
25936;SDS011;13733;51.178;4.450;2024-03-06T06:35:47;21.25;;;15.75;;
25936;SDS011;13733;51.178;4.450;2024-03-06T06:38:13;22.38;;;16.20;;
25936;SDS011;13733;51.178;4.450;2024-03-06T06:40:39;24.23;;;16.50;;
25936;SDS011;13733;51.178;4.450;2024-03-06T06:43:07;20.80;;;16.48;;
25936;SDS011;13733;51.178;4.450;2024-03-06T06:45:33;22.35;;;16.50;;
25936;SDS011;13733;51.178;4.450;2024-03-06T06:47:59;20.67;;;15.77;;
25936;SDS011;13733;51.178;4.450;2024-03-06T06:50:24;23.08;;;16.35;;
25936;SDS011;13733;51.178;4.450;2024-03-06T06:52:52;22.02;;;16.38;;
25936;SDS011;13733;51.178;4.450;2024-03-06T06:55:18;22.30;;;17.17;;
25936;SDS011;13733;51.178;4.450;2024-03-06T06:57:48;19.73;;;16.23;;
25936;SDS011;13733;51.178;4.450;2024-03-06T07:00:15;20.45;;;16.10;;
25936;SDS011;13733;51.178;4.450;2024-03-06T07:02:44;23.77;;;16.13;;
25936;SDS011;13733;51.178;4.450;2024-03-06T07:05:10;22.10;;;16.27;;
25936;SDS011;13733;51.178;4.450;2024-03-06T07:07:37;20.05;;;15.93;;
25936;SDS011;13733;51.178;4.450;2024-03-06T07:10:03;24.30;;;16.20;;
25936;SDS011;13733;51.178;4.450;2024-03-06T07:12:30;22.98;;;18.15;;
25936;SDS011;13733;51.178;4.450;2024-03-06T07:14:56;26.40;;;17.05;;
25936;SDS011;13733;51.178;4.450;2024-03-06T07:17:22;24.63;;;17.27;;
25936;SDS011;13733;51.178;4.450;2024-03-06T07:19:48;24.00;;;16.88;;
25936;SDS011;13733;51.178;4.450;2024-03-06T07:22:14;24.00;;;17.38;;
25936;SDS011;13733;51.178;4.450;2024-03-06T07:24:40;26.08;;;18.17;;
25936;SDS011;13733;51.178;4.450;2024-03-06T07:27:06;24.20;;;16.55;;
25936;SDS011;13733;51.178;4.450;2024-03-06T07:29:34;20.95;;;15.70;;
25936;SDS011;13733;51.178;4.450;2024-03-06T07:32:00;22.33;;;15.57;;
25936;SDS011;13733;51.178;4.450;2024-03-06T07:34:27;19.67;;;14.57;;
25936;SDS011;13733;51.178;4.450;2024-03-06T07:36:53;22.23;;;15.63;;
25936;SDS011;13733;51.178;4.450;2024-03-06T07:39:19;21.73;;;15.50;;
25936;SDS011;13733;51.178;4.450;2024-03-06T07:41:45;21.10;;;14.80;;
25936;SDS011;13733;51.178;4.450;2024-03-06T07:44:11;19.38;;;14.27;;
25936;SDS011;13733;51.178;4.450;2024-03-06T07:46:37;18.58;;;14.07;;
25936;SDS011;13733;51.178;4.450;2024-03-06T07:49:03;20.48;;;14.80;;
25936;SDS011;13733;51.178;4.450;2024-03-06T07:51:30;17.23;;;14.15;;
25936;SDS011;13733;51.178;4.450;2024-03-06T07:53:59;18.40;;;14.20;;
25936;SDS011;13733;51.178;4.450;2024-03-06T07:56:26;18.17;;;13.15;;
25936;SDS011;13733;51.178;4.450;2024-03-06T07:58:52;19.50;;;13.23;;
25936;SDS011;13733;51.178;4.450;2024-03-06T08:01:18;20.48;;;13.27;;
25936;SDS011;13733;51.178;4.450;2024-03-06T08:03:47;16.45;;;11.60;;
25936;SDS011;13733;51.178;4.450;2024-03-06T08:06:13;19.10;;;11.77;;
25936;SDS011;13733;51.178;4.450;2024-03-06T08:08:41;15.48;;;11.50;;
25936;SDS011;13733;51.178;4.450;2024-03-06T08:11:09;14.77;;;10.75;;
25936;SDS011;13733;51.178;4.450;2024-03-06T08:13:36;19.17;;;12.35;;
25936;SDS011;13733;51.178;4.450;2024-03-06T08:16:05;19.52;;;12.15;;
25936;SDS011;13733;51.178;4.450;2024-03-06T08:18:32;16.13;;;11.05;;
25936;SDS011;13733;51.178;4.450;2024-03-06T08:20:59;13.52;;;10.60;;
25936;SDS011;13733;51.178;4.450;2024-03-06T08:23:25;17.15;;;11.55;;
25936;SDS011;13733;51.178;4.450;2024-03-06T08:25:51;15.90;;;11.30;;
25936;SDS011;13733;51.178;4.450;2024-03-06T08:28:17;15.45;;;11.00;;
25936;SDS011;13733;51.178;4.450;2024-03-06T08:30:43;16.80;;;11.65;;
25936;SDS011;13733;51.178;4.450;2024-03-06T08:33:09;14.70;;;11.63;;
25936;SDS011;13733;51.178;4.450;2024-03-06T08:35:36;14.77;;;11.98;;
25936;SDS011;13733;51.178;4.450;2024-03-06T08:38:01;14.90;;;11.60;;
25936;SDS011;13733;51.178;4.450;2024-03-06T08:40:27;18.10;;;11.30;;
25936;SDS011;13733;51.178;4.450;2024-03-06T08:42:53;14.95;;;11.27;;
25936;SDS011;13733;51.178;4.450;2024-03-06T08:45:19;21.15;;;12.38;;
25936;SDS011;13733;51.178;4.450;2024-03-06T08:47:46;13.15;;;11.00;;
25936;SDS011;13733;51.178;4.450;2024-03-06T08:50:13;19.63;;;11.65;;
25936;SDS011;13733;51.178;4.450;2024-03-06T08:52:39;15.88;;;11.45;;
25936;SDS011;13733;51.178;4.450;2024-03-06T08:55:06;17.00;;;10.77;;
25936;SDS011;13733;51.178;4.450;2024-03-06T08:57:35;13.80;;;10.77;;
25936;SDS011;13733;51.178;4.450;2024-03-06T09:00:02;16.17;;;11.40;;
25936;SDS011;13733;51.178;4.450;2024-03-06T09:02:35;13.90;;;10.38;;
25936;SDS011;13733;51.178;4.450;2024-03-06T09:05:03;14.48;;;10.63;;
25936;SDS011;13733;51.178;4.450;2024-03-06T09:07:30;14.45;;;10.15;;
25936;SDS011;13733;51.178;4.450;2024-03-06T09:09:56;15.00;;;9.75;;
25936;SDS011;13733;51.178;4.450;2024-03-06T09:12:22;11.95;;;10.05;;
25936;SDS011;13733;51.178;4.450;2024-03-06T09:14:48;12.32;;;9.23;;
25936;SDS011;13733;51.178;4.450;2024-03-06T09:17:13;12.48;;;9.18;;
25936;SDS011;13733;51.178;4.450;2024-03-06T09:19:39;13.52;;;9.40;;
25936;SDS011;13733;51.178;4.450;2024-03-06T09:22:06;12.13;;;9.30;;
25936;SDS011;13733;51.178;4.450;2024-03-06T09:24:32;13.38;;;9.70;;
25936;SDS011;13733;51.178;4.450;2024-03-06T09:27:00;12.60;;;9.07;;
25936;SDS011;13733;51.178;4.450;2024-03-06T09:29:26;12.52;;;9.95;;
25936;SDS011;13733;51.178;4.450;2024-03-06T09:31:52;14.95;;;10.32;;
25936;SDS011;13733;51.178;4.450;2024-03-06T09:34:18;12.13;;;9.35;;
25936;SDS011;13733;51.178;4.450;2024-03-06T09:36:46;13.82;;;10.02;;
25936;SDS011;13733;51.178;4.450;2024-03-06T09:39:16;14.98;;;10.75;;
25936;SDS011;13733;51.178;4.450;2024-03-06T09:41:49;14.15;;;10.65;;
25936;SDS011;13733;51.178;4.450;2024-03-06T09:44:16;15.98;;;10.25;;
25936;SDS011;13733;51.178;4.450;2024-03-06T09:46:44;14.93;;;9.82;;
25936;SDS011;13733;51.178;4.450;2024-03-06T09:49:11;14.40;;;9.80;;
25936;SDS011;13733;51.178;4.450;2024-03-06T09:51:40;13.70;;;9.35;;
25936;SDS011;13733;51.178;4.450;2024-03-06T09:56:36;11.68;;;9.07;;
25936;SDS011;13733;51.178;4.450;2024-03-06T09:59:03;15.88;;;8.52;;
25936;SDS011;13733;51.178;4.450;2024-03-06T10:01:29;12.90;;;9.00;;
25936;SDS011;13733;51.178;4.450;2024-03-06T10:03:56;15.77;;;9.60;;
25936;SDS011;13733;51.178;4.450;2024-03-06T10:06:22;12.48;;;8.68;;
25936;SDS011;13733;51.178;4.450;2024-03-06T10:08:48;13.75;;;9.07;;
25936;SDS011;13733;51.178;4.450;2024-03-06T10:11:15;14.98;;;9.70;;
25936;SDS011;13733;51.178;4.450;2024-03-06T10:13:42;11.20;;;8.52;;
25936;SDS011;13733;51.178;4.450;2024-03-06T10:16:08;12.27;;;9.32;;
25936;SDS011;13733;51.178;4.450;2024-03-06T10:18:35;16.15;;;10.70;;
25936;SDS011;13733;51.178;4.450;2024-03-06T10:21:03;13.48;;;9.45;;
25936;SDS011;13733;51.178;4.450;2024-03-06T10:23:30;16.65;;;12.15;;
25936;SDS011;13733;51.178;4.450;2024-03-06T10:25:56;17.63;;;11.90;;
25936;SDS011;13733;51.178;4.450;2024-03-06T10:28:23;17.85;;;11.63;;
25936;SDS011;13733;51.178;4.450;2024-03-06T10:30:49;15.80;;;10.73;;
25936;SDS011;13733;51.178;4.450;2024-03-06T10:33:18;16.48;;;10.40;;
25936;SDS011;13733;51.178;4.450;2024-03-06T10:35:45;19.27;;;11.98;;
25936;SDS011;13733;51.178;4.450;2024-03-06T10:38:13;19.25;;;11.25;;
25936;SDS011;13733;51.178;4.450;2024-03-06T10:40:42;13.48;;;9.68;;
25936;SDS011;13733;51.178;4.450;2024-03-06T10:43:09;17.75;;;11.15;;
25936;SDS011;13733;51.178;4.450;2024-03-06T10:48:04;19.15;;;12.45;;
25936;SDS011;13733;51.178;4.450;2024-03-06T10:50:31;17.55;;;11.60;;
25936;SDS011;13733;51.178;4.450;2024-03-06T10:52:58;18.58;;;12.55;;
25936;SDS011;13733;51.178;4.450;2024-03-06T10:55:25;17.20;;;11.43;;
25936;SDS011;13733;51.178;4.450;2024-03-06T10:57:55;15.40;;;10.85;;
25936;SDS011;13733;51.178;4.450;2024-03-06T11:00:22;14.48;;;9.30;;
25936;SDS011;13733;51.178;4.450;2024-03-06T11:02:49;13.38;;;9.50;;
25936;SDS011;13733;51.178;4.450;2024-03-06T11:05:18;11.52;;;8.00;;
25936;SDS011;13733;51.178;4.450;2024-03-06T11:07:44;13.05;;;9.48;;
25936;SDS011;13733;51.178;4.450;2024-03-06T11:10:10;13.55;;;9.93;;
25936;SDS011;13733;51.178;4.450;2024-03-06T11:12:41;10.40;;;7.40;;
25936;SDS011;13733;51.178;4.450;2024-03-06T11:15:16;12.05;;;9.27;;
25936;SDS011;13733;51.178;4.450;2024-03-06T11:17:42;13.05;;;8.82;;
25936;SDS011;13733;51.178;4.450;2024-03-06T11:20:08;14.07;;;9.88;;
25936;SDS011;13733;51.178;4.450;2024-03-06T11:28:21;7.82;;;6.32;;
25936;SDS011;13733;51.178;4.450;2024-03-06T11:30:47;9.48;;;6.93;;
25936;SDS011;13733;51.178;4.450;2024-03-06T11:33:20;8.25;;;6.43;;
25936;SDS011;13733;51.178;4.450;2024-03-06T11:41:22;7.45;;;4.93;;
25936;SDS011;13733;51.178;4.450;2024-03-06T11:43:50;9.13;;;5.53;;
25936;SDS011;13733;51.178;4.450;2024-03-06T11:49:15;8.57;;;5.50;;
25936;SDS011;13733;51.178;4.450;2024-03-06T11:51:46;6.20;;;5.20;;
25936;SDS011;13733;51.178;4.450;2024-03-06T11:54:12;7.63;;;5.57;;
25936;SDS011;13733;51.178;4.450;2024-03-06T11:56:42;7.05;;;4.93;;
25936;SDS011;13733;51.178;4.450;2024-03-06T11:59:10;7.50;;;4.72;;
25936;SDS011;13733;51.178;4.450;2024-03-06T12:01:37;6.45;;;5.10;;
25936;SDS011;13733;51.178;4.450;2024-03-06T12:04:03;7.93;;;5.40;;
25936;SDS011;13733;51.178;4.450;2024-03-06T12:06:32;10.25;;;6.75;;
25936;SDS011;13733;51.178;4.450;2024-03-06T12:08:58;9.43;;;6.10;;
25936;SDS011;13733;51.178;4.450;2024-03-06T12:11:25;8.02;;;4.80;;
25936;SDS011;13733;51.178;4.450;2024-03-06T12:13:54;6.00;;;4.30;;
25936;SDS011;13733;51.178;4.450;2024-03-06T12:16:23;8.35;;;5.75;;
25936;SDS011;13733;51.178;4.450;2024-03-06T12:18:55;8.85;;;5.55;;
25936;SDS011;13733;51.178;4.450;2024-03-06T12:21:27;12.63;;;6.28;;
25936;SDS011;13733;51.178;4.450;2024-03-06T12:24:05;8.55;;;6.00;;
25936;SDS011;13733;51.178;4.450;2024-03-06T12:26:33;8.45;;;5.22;;
25936;SDS011;13733;51.178;4.450;2024-03-06T12:29:09;10.25;;;5.32;;
25936;SDS011;13733;51.178;4.450;2024-03-06T12:31:38;6.20;;;4.50;;
25936;SDS011;13733;51.178;4.450;2024-03-06T12:34:07;6.03;;;4.43;;
25936;SDS011;13733;51.178;4.450;2024-03-06T12:36:34;6.75;;;4.50;;
25936;SDS011;13733;51.178;4.450;2024-03-06T12:39:04;6.28;;;4.45;;
25936;SDS011;13733;51.178;4.450;2024-03-06T12:41:40;6.85;;;4.25;;
25936;SDS011;13733;51.178;4.450;2024-03-06T12:44:07;6.30;;;4.85;;
25936;SDS011;13733;51.178;4.450;2024-03-06T12:46:33;6.35;;;4.20;;
25936;SDS011;13733;51.178;4.450;2024-03-06T12:48:59;7.32;;;3.80;;
25936;SDS011;13733;51.178;4.450;2024-03-06T12:51:25;6.10;;;3.65;;
25936;SDS011;13733;51.178;4.450;2024-03-06T12:53:51;5.05;;;3.60;;
25936;SDS011;13733;51.178;4.450;2024-03-06T12:56:18;4.80;;;3.60;;
25936;SDS011;13733;51.178;4.450;2024-03-06T12:58:44;4.68;;;3.80;;
25936;SDS011;13733;51.178;4.450;2024-03-06T13:01:11;4.57;;;3.53;;
25936;SDS011;13733;51.178;4.450;2024-03-06T13:03:37;5.50;;;4.00;;
25936;SDS011;13733;51.178;4.450;2024-03-06T13:06:04;6.65;;;3.70;;
25936;SDS011;13733;51.178;4.450;2024-03-06T13:08:31;6.95;;;4.10;;
25936;SDS011;13733;51.178;4.450;2024-03-06T13:10:57;6.47;;;4.20;;
25936;SDS011;13733;51.178;4.450;2024-03-06T13:13:23;8.55;;;4.60;;
25936;SDS011;13733;51.178;4.450;2024-03-06T13:15:50;7.70;;;4.47;;
25936;SDS011;13733;51.178;4.450;2024-03-06T13:18:16;10.07;;;4.22;;
25936;SDS011;13733;51.178;4.450;2024-03-06T13:20:42;6.65;;;3.95;;
25936;SDS011;13733;51.178;4.450;2024-03-06T13:23:09;5.20;;;3.85;;
25936;SDS011;13733;51.178;4.450;2024-03-06T13:25:36;4.25;;;3.45;;
25936;SDS011;13733;51.178;4.450;2024-03-06T13:28:05;4.13;;;3.28;;
25936;SDS011;13733;51.178;4.450;2024-03-06T13:30:31;3.90;;;3.20;;
25936;SDS011;13733;51.178;4.450;2024-03-06T13:32:57;5.97;;;3.55;;
25936;SDS011;13733;51.178;4.450;2024-03-06T13:35:24;4.68;;;3.33;;
25936;SDS011;13733;51.178;4.450;2024-03-06T13:37:50;5.18;;;3.95;;
25936;SDS011;13733;51.178;4.450;2024-03-06T13:40:16;5.13;;;3.63;;
25936;SDS011;13733;51.178;4.450;2024-03-06T13:42:42;8.60;;;3.63;;
25936;SDS011;13733;51.178;4.450;2024-03-06T13:45:09;4.78;;;3.10;;
25936;SDS011;13733;51.178;4.450;2024-03-06T13:47:39;5.85;;;3.80;;
25936;SDS011;13733;51.178;4.450;2024-03-06T13:52:42;7.65;;;3.50;;
25936;SDS011;13733;51.178;4.450;2024-03-06T13:55:08;4.18;;;2.80;;
25936;SDS011;13733;51.178;4.450;2024-03-06T13:57:35;2.60;;;2.22;;
25936;SDS011;13733;51.178;4.450;2024-03-06T14:00:03;5.57;;;3.05;;
25936;SDS011;13733;51.178;4.450;2024-03-06T14:02:36;3.70;;;2.88;;
25936;SDS011;13733;51.178;4.450;2024-03-06T14:05:03;5.57;;;3.10;;
25936;SDS011;13733;51.178;4.450;2024-03-06T14:07:30;7.25;;;2.65;;
25936;SDS011;13733;51.178;4.450;2024-03-06T14:09:56;4.30;;;2.85;;
25936;SDS011;13733;51.178;4.450;2024-03-06T14:12:22;5.28;;;2.90;;
25936;SDS011;13733;51.178;4.450;2024-03-06T14:14:48;4.63;;;2.60;;
25936;SDS011;13733;51.178;4.450;2024-03-06T14:17:14;4.30;;;2.85;;
25936;SDS011;13733;51.178;4.450;2024-03-06T14:19:40;5.85;;;2.92;;
25936;SDS011;13733;51.178;4.450;2024-03-06T14:22:07;3.78;;;3.05;;
25936;SDS011;13733;51.178;4.450;2024-03-06T14:24:33;6.60;;;2.78;;
25936;SDS011;13733;51.178;4.450;2024-03-06T14:27:00;4.80;;;2.55;;
25936;SDS011;13733;51.178;4.450;2024-03-06T14:29:26;4.68;;;2.80;;
25936;SDS011;13733;51.178;4.450;2024-03-06T14:31:54;5.55;;;2.65;;
25936;SDS011;13733;51.178;4.450;2024-03-06T14:34:20;5.75;;;2.80;;
25936;SDS011;13733;51.178;4.450;2024-03-06T14:36:49;7.20;;;3.50;;
25936;SDS011;13733;51.178;4.450;2024-03-06T14:39:16;7.47;;;3.75;;
25936;SDS011;13733;51.178;4.450;2024-03-06T14:41:43;5.03;;;3.00;;
25936;SDS011;13733;51.178;4.450;2024-03-06T14:44:10;6.28;;;3.05;;
25936;SDS011;13733;51.178;4.450;2024-03-06T14:46:36;3.75;;;2.90;;
25936;SDS011;13733;51.178;4.450;2024-03-06T14:49:02;5.50;;;3.00;;
25936;SDS011;13733;51.178;4.450;2024-03-06T14:51:30;5.20;;;3.00;;